Time;durP1;ratioP1;P1;durP2;ratioP2;P2;SDS_P1;SDS_P2;PMS_P1;PMS_P2;Temp;Humidity;BMP_temperature;BMP_pressure;BME280_temperature;BME280_humidity;BME280_pressure;Samples;Min_cycle;Max_cycle;Signal;HPM_P1;HPM_P2
2022/09/04 00:02:19;;;;;;;6.75;4.78;;;;;;;16.20;75.69;100171.75;4443639;32;34158;-86
2022/09/04 00:04:59;;;;;;;8.27;4.82;;;;;;;15.95;76.85;100174.50;4433878;32;33896;-86
2022/09/04 00:07:34;;;;;;;7.37;4.82;;;;;;;15.99;76.62;100173.75;4446040;32;33481;-87
2022/09/04 00:10:11;;;;;;;7.55;5.28;;;;;;;16.38;74.74;100174.00;4420421;32;32326;-86
2022/09/04 00:13:11;;;;;;;7.87;4.47;;;;;;;16.53;74.10;100170.91;4446348;32;33815;-86
2022/09/04 00:15:43;;;;;;;8.57;5.03;;;;;;;16.41;74.58;100171.47;4437097;32;33800;-87
2022/09/04 00:18:28;;;;;;;7.65;4.75;;;;;;;16.48;73.90;100169.91;4436930;32;34286;-87
2022/09/04 00:21:23;;;;;;;7.32;4.82;;;;;;;16.47;74.06;100174.22;4422340;32;32499;-87
2022/09/04 00:23:57;;;;;;;8.85;5.18;;;;;;;16.46;74.48;100169.00;4429479;32;33487;-87
2022/09/04 00:26:37;;;;;;;6.68;4.32;;;;;;;16.34;74.97;100166.03;4438542;32;33271;-86
2022/09/04 00:29:17;;;;;;;7.72;4.45;;;;;;;16.41;74.27;100178.44;4449308;32;33156;-86
2022/09/04 00:32:01;;;;;;;7.20;4.82;;;;;;;16.57;74.05;100180.59;4432587;32;34771;-87
2022/09/04 00:34:54;;;;;;;8.27;5.12;;;;;;;16.18;76.00;100169.94;4428970;32;33616;-87
2022/09/04 00:37:25;;;;;;;8.77;4.97;;;;;;;16.21;76.44;100186.59;4436664;32;32699;-87
2022/09/04 00:40:02;;;;;;;8.88;5.03;;;;;;;16.33;75.78;100185.19;4432072;32;34119;-87
2022/09/04 00:43:06;;;;;;;7.75;5.12;;;;;;;16.33;75.70;100186.06;4433931;32;34407;-88
2022/09/04 00:45:49;;;;;;;9.20;5.05;;;;;;;16.50;74.89;100179.56;4390756;32;33735;-87
2022/09/04 00:48:56;;;;;;;6.97;5.00;;;;;;;16.22;76.52;100188.34;4440242;32;33511;-87
2022/09/04 00:51:26;;;;;;;8.23;5.65;;;;;;;16.42;76.35;100175.84;4387143;32;35221;-86
2022/09/04 00:54:03;;;;;;;8.13;5.43;;;;;;;16.31;76.38;100188.63;4446221;32;34570;-86
2022/09/04 00:56:40;;;;;;;10.52;5.43;;;;;;;16.17;77.21;100176.91;4413180;32;33063;-86
2022/09/04 00:59:33;;;;;;;9.50;4.97;;;;;;;16.49;75.88;100183.00;4434415;32;33739;-86
2022/09/04 01:02:10;;;;;;;10.93;5.37;;;;;;;16.54;75.61;100170.06;4431890;32;34097;-86
2022/09/04 01:04:49;;;;;;;8.40;5.40;;;;;;;16.58;75.30;100176.28;4417965;32;34024;-86
2022/09/04 01:07:48;;;;;;;10.10;5.82;;;;;;;16.31;76.66;100178.16;4435919;32;33085;-87
2022/09/04 01:10:43;;;;;;;6.82;4.75;;;;;;;16.53;75.85;100178.75;4421127;32;34367;-86
2022/09/04 01:13:22;;;;;;;8.13;5.00;;;;;;;16.77;74.54;100188.97;4444201;32;34108;-86
2022/09/04 01:16:02;;;;;;;8.88;6.10;;;;;;;16.87;73.89;100190.13;4421088;32;33497;-85
2022/09/04 01:18:36;;;;;;;7.35;4.90;;;;;;;16.91;73.89;100194.59;4433959;32;33911;-85
2022/09/04 01:21:29;;;;;;;7.43;5.07;;;;;;;17.70;70.34;100192.09;4441302;32;34192;-87
2022/09/04 01:24:06;;;;;;;8.13;5.00;;;;;;;17.52;70.69;100199.53;4443979;32;33194;-87
2022/09/04 01:26:51;;;;;;;8.80;5.40;;;;;;;18.07;68.98;100203.41;4445974;32;33590;-85
2022/09/04 01:30:08;;;;;;;10.00;6.15;;;;;;;17.80;69.59;100201.91;4420069;32;33841;-87
2022/09/04 01:32:54;;;;;;;8.93;5.40;;;;;;;17.21;72.70;100206.66;4386188;32;33810;-86
2022/09/04 01:35:43;;;;;;;8.05;5.35;;;;;;;17.13;72.97;100209.09;4438628;32;33148;-86
2022/09/04 01:38:24;;;;;;;7.70;5.05;;;;;;;16.68;74.85;100213.16;4429409;32;34752;-87
2022/09/04 01:41:26;;;;;;;7.10;4.72;;;;;;;16.88;74.91;100207.59;4425351;32;34711;-87
2022/09/04 01:43:53;;;;;;;8.02;4.90;;;;;;;17.54;71.81;100216.16;4439194;32;33854;-87
2022/09/04 01:46:33;;;;;;;7.07;4.82;;;;;;;17.47;72.51;100221.25;4448244;32;33417;-86
2022/09/04 01:49:10;;;;;;;8.30;5.40;;;;;;;17.63;72.39;100221.62;4432869;32;34610;-86
2022/09/04 01:51:45;;;;;;;8.52;4.80;;;;;;;17.96;70.85;100223.25;4433799;32;34557;-87
2022/09/04 01:54:30;;;;;;;12.07;5.53;;;;;;;18.06;69.88;100225.25;4439197;32;34519;-86
2022/09/04 01:57:13;;;;;;;12.48;5.18;;;;;;;17.69;71.14;100221.75;4429335;32;33551;-86
2022/09/04 02:00:09;;;;;;;12.43;5.15;;;;;;;18.14;69.40;100215.78;4442004;32;32637;-86
2022/09/04 02:03:04;;;;;;;9.25;5.12;;;;;;;18.26;69.15;100216.03;4433994;32;34635;-86
2022/09/04 02:05:41;;;;;;;8.98;4.62;;;;;;;18.37;68.21;100212.72;4436627;32;33948;-87
2022/09/04 02:08:51;;;;;;;7.12;4.57;;;;;;;18.31;68.09;100215.25;4443095;32;34284;-88
2022/09/04 02:11:22;;;;;;;7.62;4.80;;;;;;;18.27;68.20;100214.28;4435641;32;33693;-86
2022/09/04 02:14:09;;;;;;;9.23;5.30;;;;;;;18.44;67.52;100209.38;4446855;32;33949;-87
2022/09/04 02:16:48;;;;;;;10.38;6.35;;;;;;;18.39;67.95;100216.31;4443047;32;32178;-87
2022/09/04 02:19:43;;;;;;;8.98;5.90;;;;;;;18.43;67.52;100218.12;4449974;32;33359;-88
2022/09/04 02:22:29;;;;;;;;;;;;;;;18.42;67.49;100211.09;4425605;32;33330;-86
2022/09/04 02:25:21;;;;;;;9.18;5.97;;;;;;;18.60;66.43;100211.47;4435492;32;35102;-87
2022/09/04 02:28:18;;;;;;;9.73;6.75;;;;;;;18.34;67.65;100212.69;4437525;32;34281;-86
2022/09/04 02:31:04;;;;;;;11.55;6.18;;;;;;;18.23;67.90;100213.37;4437482;32;32797;-86
2022/09/04 02:34:12;;;;;;;11.95;6.20;;;;;;;18.41;67.47;100217.22;4445865;32;33479;-87
2022/09/04 02:36:46;;;;;;;10.50;6.12;;;;;;;18.57;66.65;100221.88;4442773;32;34174;-86
2022/09/04 02:39:34;;;;;;;9.45;5.57;;;;;;;18.53;66.78;100220.06;4434722;32;33787;-88
2022/09/04 02:42:26;;;;;;;9.77;6.50;;;;;;;18.46;67.48;100223.41;4430479;32;33782;-87
2022/09/04 02:45:08;;;;;;;9.88;6.03;;;;;;;18.69;66.15;100215.09;4433912;32;33734;-87
2022/09/04 02:48:12;;;;;;;9.10;6.22;;;;;;;18.26;68.15;100216.03;4424828;32;33637;-87
2022/09/04 02:50:48;;;;;;;8.48;6.03;;;;;;;18.21;68.51;100212.41;4433733;32;34841;-87
2022/09/04 02:53:34;;;;;;;8.30;5.47;;;;;;;18.59;66.82;100216.66;4449237;32;33333;-86
2022/09/04 02:56:20;;;;;;;;;;;;;;;18.61;66.49;100218.47;4439116;32;36344;-87
2022/09/04 02:59:10;;;;;;;10.80;5.68;;;;;;;18.76;64.89;100217.00;4431869;32;34918;-88
2022/09/04 03:02:02;;;;;;;9.00;5.55;;;;;;;19.03;64.17;100222.75;4419701;32;33840;-86
2022/09/04 03:04:48;;;;;;;9.27;5.35;;;;;;;18.86;65.05;100221.56;4421837;32;32711;-86
2022/09/04 03:08:02;;;;;;;10.13;5.45;;;;;;;18.75;65.51;100218.72;4421862;32;33624;-88
2022/09/04 03:10:40;;;;;;;10.60;5.62;;;;;;;18.80;65.26;100221.47;4420645;32;33611;-87
2022/09/04 03:13:31;;;;;;;8.43;5.10;;;;;;;18.77;65.06;100217.00;4422403;32;32393;-87
2022/09/04 03:16:09;;;;;;;11.10;5.07;;;;;;;18.70;64.97;100217.75;4422375;32;33751;-85
2022/09/04 03:19:08;;;;;;;8.68;5.05;;;;;;;18.44;65.61;100219.87;4423576;32;33881;-87
2022/09/04 03:21:48;;;;;;;7.37;5.35;;;;;;;18.08;67.47;100223.53;4434336;32;33517;-86
2022/09/04 03:24:27;;;;;;;8.95;5.93;;;;;;;18.15;66.98;100221.91;4413379;32;32813;-88
2022/09/04 03:26:58;;;;;;;8.80;6.10;;;;;;;17.93;68.21;100224.09;4412128;32;33451;-86
2022/09/04 03:29:53;;;;;;;7.80;5.87;;;;;;;17.54;70.04;100229.25;4436414;32;34386;-87
2022/09/04 03:32:31;;;;;;;11.80;5.82;;;;;;;17.94;68.91;100232.81;4443536;32;34595;-87
2022/09/04 03:35:02;;;;;;;9.80;5.30;;;;;;;18.06;68.39;100234.00;4424314;32;33757;-87
2022/09/04 03:37:52;;;;;;;8.15;6.00;;;;;;;18.00;68.02;100238.19;4425376;32;34032;-86
2022/09/04 03:40:56;;;;;;;10.95;6.15;;;;;;;17.80;69.18;100246.47;4431574;32;34602;-88
2022/09/04 03:43:48;;;;;;;12.55;5.50;;;;;;;17.76;69.63;100244.63;4398543;32;34568;-86
2022/09/04 03:47:02;;;;;;;12.70;5.55;;;;;;;18.01;68.26;100251.34;4420667;32;34716;-87
2022/09/04 03:50:22;;;;;;;10.35;6.10;;;;;;;18.10;67.73;100240.19;4396466;32;34266;-86
2022/09/04 03:53:17;;;;;;;8.00;5.78;;;;;;;18.17;67.35;100252.53;4345030;32;33813;-87
2022/09/04 03:56:01;;;;;;;9.35;5.90;;;;;;;17.93;68.33;100252.03;4431254;32;34567;-87
2022/09/04 03:59:02;;;;;;;9.20;5.93;;;;;;;17.97;67.90;100248.62;4421307;32;35539;-86
2022/09/04 04:01:29;;;;;;;7.97;5.57;;;;;;;17.51;71.07;100245.81;4438715;32;34265;-86
2022/09/04 04:04:03;;;;;;;11.30;6.20;;;;;;;17.29;71.51;100253.16;4431181;32;33706;-87
2022/09/04 04:06:39;;;;;;;10.93;6.37;;;;;;;17.30;71.72;100248.78;4435175;32;34177;-87
2022/09/04 04:09:28;;;;;;;9.02;6.60;;;;;;;17.70;69.59;100260.22;4420505;32;34446;-87
2022/09/04 04:12:33;;;;;;;9.98;5.68;;;;;;;17.44;70.35;100260.50;4426340;32;33441;-87
2022/09/04 04:15:26;;;;;;;9.52;6.35;;;;;;;17.73;69.00;100259.41;4425706;32;33913;-86
2022/09/04 04:18:20;;;;;;;9.48;6.20;;;;;;;17.92;67.97;100271.22;4434617;32;34067;-88
2022/09/04 04:20:58;;;;;;;9.67;6.13;;;;;;;17.38;70.51;100277.78;4414236;32;33773;-86
2022/09/04 04:23:58;;;;;;;8.25;5.45;;;;;;;17.16;71.21;100284.22;4423434;32;33394;-86
2022/09/04 04:26:46;;;;;;;8.88;6.15;;;;;;;17.63;69.22;100289.72;4416851;32;32697;-87
2022/09/04 04:29:50;;;;;;;11.38;6.32;;;;;;;17.74;68.52;100297.87;4439981;32;34621;-86
2022/09/04 04:32:36;;;;;;;22.40;7.15;;;;;;;17.78;68.55;100300.56;4421425;32;33345;-87
2022/09/04 04:35:18;;;;;;;8.70;6.05;;;;;;;17.87;67.66;100299.97;4432141;32;33271;-86
2022/09/04 04:38:04;;;;;;;8.75;5.82;;;;;;;17.67;69.30;100309.91;4430314;32;34004;-86
2022/09/04 04:41:16;;;;;;;8.38;5.00;;;;;;;17.92;68.73;100313.16;4438843;32;33760;-86
2022/09/04 04:43:55;;;;;;;10.07;5.57;;;;;;;17.87;68.04;100308.69;4423893;32;34043;-86
2022/09/04 04:46:38;;;;;;;9.32;6.12;;;;;;;17.94;67.83;100314.06;4428044;32;33658;-87
2022/09/04 04:49:32;;;;;;;10.13;5.80;;;;;;;17.99;67.89;100321.19;4433804;32;33970;-88
2022/09/04 04:52:20;;;;;;;9.80;5.72;;;;;;;18.19;67.68;100308.53;4440066;32;33481;-87
2022/09/04 04:54:55;;;;;;;10.50;6.25;;;;;;;18.14;67.50;100320.66;4403917;32;33755;-87
2022/09/04 04:57:52;;;;;;;9.15;5.68;;;;;;;18.19;67.51;100326.00;4417773;32;34830;-86
2022/09/04 05:00:23;;;;;;;6.70;4.90;;;;;;;18.18;68.24;100332.13;4411683;32;34382;-86
2022/09/04 05:03:11;;;;;;;9.75;5.78;;;;;;;18.49;67.47;100331.03;4418448;32;34369;-87
2022/09/04 05:05:55;;;;;;;9.15;6.05;;;;;;;18.34;67.41;100331.59;4419110;32;33823;-86
2022/09/04 05:09:01;;;;;;;10.50;6.28;;;;;;;18.60;66.76;100331.25;4426360;32;33910;-86
2022/09/04 05:11:35;;;;;;;8.40;6.22;;;;;;;18.49;67.58;100333.66;4424759;32;33510;-86
2022/09/04 05:14:10;;;;;;;8.55;6.03;;;;;;;18.52;68.12;100328.47;4432707;32;33626;-86
2022/09/04 05:16:48;;;;;;;6.95;5.72;;;;;;;18.60;68.21;100341.75;4430721;32;32242;-85
2022/09/04 05:19:40;;;;;;;7.47;5.32;;;;;;;18.81;67.70;100325.56;4422849;32;33491;-87
2022/09/04 05:22:19;;;;;;;7.93;5.70;;;;;;;19.12;66.96;100336.66;4437021;32;34664;-86
2022/09/04 05:25:01;;;;;;;7.90;5.65;;;;;;;18.67;68.25;100339.28;4408642;32;33375;-86
2022/09/04 05:27:37;;;;;;;7.57;5.45;;;;;;;18.94;67.49;100332.84;4426578;32;34507;-88
2022/09/04 05:30:08;;;;;;;8.55;5.90;;;;;;;19.15;66.96;100332.37;4438775;32;34055;-86
2022/09/04 05:32:53;;;;;;;7.65;5.57;;;;;;;19.31;66.82;100333.50;4410839;32;34952;-87
2022/09/04 05:35:31;;;;;;;8.77;5.20;;;;;;;19.39;66.20;100336.28;4413042;32;34590;-86
2022/09/04 05:38:09;;;;;;;9.43;6.18;;;;;;;19.44;66.10;100335.50;4438453;32;34029;-86
2022/09/04 05:40:43;;;;;;;;;;;;;;;19.39;66.26;100347.69;4419524;32;33668;-86
2022/09/04 05:43:10;;;;;;;7.18;5.57;;;;;;;19.58;65.28;100348.87;4431519;32;34333;-87
2022/09/04 05:45:50;;;;;;;7.32;5.12;;;;;;;19.52;65.86;100351.41;4434760;32;32776;-87
2022/09/04 05:48:25;;;;;;;8.60;4.93;;;;;;;19.67;65.20;100350.78;4433117;32;33897;-87
2022/09/04 05:51:34;;;;;;;8.25;5.30;;;;;;;19.51;65.40;100357.53;4422503;32;33407;-87
2022/09/04 05:54:16;;;;;;;6.87;4.50;;;;;;;19.39;66.17;100363.47;4421720;32;34831;-87
2022/09/04 05:57:09;;;;;;;5.95;4.10;;;;;;;19.24;66.19;100364.06;4431736;32;33983;-87
2022/09/04 05:59:46;;;;;;;7.90;4.35;;;;;;;19.58;65.14;100358.50;4417764;32;34421;-87
2022/09/04 06:02:16;;;;;;;7.82;4.75;;;;;;;19.25;66.10;100359.69;4429597;32;33334;-87
2022/09/04 06:05:03;;;;;;;8.82;4.45;;;;;;;19.06;66.76;100350.56;4408448;32;32506;-86
2022/09/04 06:07:52;;;;;;;6.70;4.87;;;;;;;19.31;65.80;100354.53;4433789;32;34544;-87
2022/09/04 06:10:35;;;;;;;11.18;4.40;;;;;;;19.47;65.12;100355.72;4423453;32;34597;-87
2022/09/04 06:13:40;;;;;;;8.30;4.55;;;;;;;19.16;65.98;100354.25;4425749;32;33737;-87
2022/09/04 06:16:25;;;;;;;6.10;4.40;;;;;;;19.33;65.40;100358.06;4417334;32;33889;-87
2022/09/04 06:19:20;;;;;;;6.97;4.25;;;;;;;19.50;64.75;100349.63;4422558;32;34159;-88
2022/09/04 06:21:47;;;;;;;10.60;4.35;;;;;;;19.70;64.10;100352.56;4442941;32;33977;-88
2022/09/04 06:24:31;;;;;;;8.50;4.53;;;;;;;19.44;64.92;100356.53;4429581;32;33656;-86
2022/09/04 06:27:14;;;;;;;5.85;3.80;;;;;;;19.62;64.49;100360.31;4432084;32;34005;-88
2022/09/04 06:30:00;;;;;;;9.05;4.03;;;;;;;19.27;65.38;100363.22;4414976;32;32466;-90
2022/09/04 06:32:44;;;;;;;8.23;4.47;;;;;;;19.41;65.00;100369.63;4438969;32;33510;-90
2022/09/04 06:35:17;;;;;;;7.75;4.10;;;;;;;19.49;64.80;100363.59;4435222;32;34263;-88
2022/09/04 06:37:57;;;;;;;6.28;4.22;;;;;;;19.73;63.74;100369.31;4418012;32;34654;-87
2022/09/04 06:40:43;;;;;;;12.98;4.05;;;;;;;20.02;62.91;100366.25;4440329;32;34191;-88
2022/09/04 06:43:41;;;;;;;5.40;3.50;;;;;;;19.94;63.41;100365.28;4411815;32;33885;-86
2022/09/04 06:46:30;;;;;;;5.60;4.05;;;;;;;19.29;64.26;100377.25;4417335;32;33874;-87
2022/09/04 06:49:19;;;;;;;6.97;3.75;;;;;;;19.57;63.97;100378.66;4434553;32;33595;-85
2022/09/04 06:52:11;;;;;;;7.80;4.15;;;;;;;19.96;62.11;100382.84;4424892;32;33418;-86
2022/09/04 06:54:58;;;;;;;8.98;4.10;;;;;;;19.84;63.25;100388.78;4414149;32;33694;-84
2022/09/04 06:57:53;;;;;;;6.78;4.25;;;;;;;19.78;62.63;100383.44;4415888;32;34204;-85
2022/09/04 07:00:21;;;;;;;5.72;3.72;;;;;;;19.96;62.39;100387.22;4425334;32;34498;-85
2022/09/04 07:03:13;;;;;;;6.82;4.30;;;;;;;19.94;62.58;100383.69;4425420;32;33140;-86
2022/09/04 07:05:51;;;;;;;5.25;3.80;;;;;;;19.78;63.46;100386.06;4418618;32;34474;-86
2022/09/04 07:08:28;;;;;;;7.20;4.18;;;;;;;20.02;62.35;100397.81;4418009;32;34095;-86
2022/09/04 07:11:32;;;;;;;7.30;3.92;;;;;;;20.31;61.27;100390.38;4429115;32;34653;-85
2022/09/04 07:14:18;;;;;;;6.25;3.95;;;;;;;20.27;61.37;100392.94;4410974;32;32100;-85
2022/09/04 07:17:02;;;;;;;5.68;4.05;;;;;;;20.62;60.02;100386.44;4438870;32;34153;-85
2022/09/04 07:19:38;;;;;;;6.78;3.97;;;;;;;20.74;59.57;100395.38;4414392;32;33432;-86
2022/09/04 07:22:34;;;;;;;5.90;3.67;;;;;;;20.54;60.36;100393.31;4425757;32;34627;-86
2022/09/04 07:25:12;;;;;;;7.45;3.78;;;;;;;20.61;60.30;100395.22;4397691;32;34728;-85
2022/09/04 07:28:17;;;;;;;7.25;4.35;;;;;;;20.74;60.13;100395.38;4410335;32;34098;-85
2022/09/04 07:30:51;;;;;;;7.65;3.95;;;;;;;20.76;59.86;100398.91;4427158;32;34177;-85
2022/09/04 07:33:39;;;;;;;9.77;4.10;;;;;;;20.71;60.39;100395.34;4426631;32;33733;-87
2022/09/04 07:36:17;;;;;;;6.65;3.85;;;;;;;20.77;59.94;100398.94;4429969;32;34212;-87
2022/09/04 07:38:49;;;;;;;8.40;3.95;;;;;;;21.15;59.18;100401.16;4413121;32;33733;-86
2022/09/04 07:41:43;;;;;;;6.75;3.72;;;;;;;21.13;59.45;100416.06;4414470;32;33780;-85
2022/09/04 07:44:28;;;;;;;6.78;3.50;;;;;;;20.74;59.74;100408.53;4428136;32;33793;-86
2022/09/04 07:47:21;;;;;;;7.03;4.22;;;;;;;20.88;58.71;100404.34;4415549;32;33503;-86
2022/09/04 07:50:08;;;;;;;6.97;4.30;;;;;;;20.75;59.28;100413.81;4421497;32;34363;-86
2022/09/04 07:53:04;;;;;;;6.97;4.07;;;;;;;20.70;59.46;100418.12;4426045;32;33814;-85
2022/09/04 07:55:42;;;;;;;6.80;4.40;;;;;;;20.50;60.66;100412.56;4429752;32;33667;-85
2022/09/04 07:58:44;;;;;;;5.93;3.70;;;;;;;20.81;59.05;100418.28;4401767;32;34474;-86
2022/09/04 08:01:34;;;;;;;6.30;4.20;;;;;;;21.01;58.11;100415.88;4426055;32;34600;-87
2022/09/04 08:04:19;;;;;;;6.87;3.92;;;;;;;20.83;58.36;100426.22;4428875;32;33848;-87
2022/09/04 08:06:52;;;;;;;7.30;4.20;;;;;;;20.69;58.32;100428.66;4425039;32;32611;-86
2022/09/04 08:10:08;;;;;;;6.10;3.90;;;;;;;20.77;58.19;100435.78;4428277;32;34374;-86
2022/09/04 08:12:38;;;;;;;5.82;3.67;;;;;;;20.72;58.69;100450.63;4386425;32;34627;-88
2022/09/04 08:15:20;;;;;;;5.62;4.00;;;;;;;21.26;57.24;100461.84;4422169;32;33059;-87
2022/09/04 08:18:22;;;;;;;6.25;3.90;;;;;;;21.48;56.76;100454.22;4428839;32;33920;-87
2022/09/04 08:21:18;;;;;;;7.40;4.25;;;;;;;21.75;55.76;100454.50;4418508;32;32128;-86
2022/09/04 08:24:12;;;;;;;6.60;3.97;;;;;;;21.71;55.82;100455.34;4415535;32;32645;-85
2022/09/04 08:26:53;;;;;;;5.78;3.92;;;;;;;21.65;56.43;100451.75;4420860;32;33201;-86
2022/09/04 08:29:39;;;;;;;7.12;4.07;;;;;;;21.68;56.09;100452.69;4431364;32;34434;-86
2022/09/04 08:32:45;;;;;;;7.68;3.75;;;;;;;22.01;55.01;100453.84;4430943;32;34641;-86
2022/09/04 08:35:18;;;;;;;7.43;4.10;;;;;;;21.74;55.14;100458.00;4435791;32;34512;-86
2022/09/04 08:37:59;;;;;;;5.43;4.10;;;;;;;21.65;55.94;100455.28;4433768;32;34182;-87
2022/09/04 08:40:52;;;;;;;6.37;4.00;;;;;;;21.77;55.52;100458.03;4407063;32;33224;-86
2022/09/04 08:43:35;;;;;;;8.70;3.85;;;;;;;22.04;55.05;100456.53;4403800;32;34597;-85
2022/09/04 08:46:33;;;;;;;6.43;3.90;;;;;;;22.04;55.01;100450.34;4412309;32;33791;-86
2022/09/04 08:49:09;;;;;;;7.35;4.12;;;;;;;21.90;55.31;100455.50;4436398;32;33754;-86
2022/09/04 08:52:01;;;;;;;6.00;4.40;;;;;;;22.20;54.40;100462.81;4419175;32;32209;-86
2022/09/04 08:55:10;;;;;;;9.70;4.40;;;;;;;22.47;53.60;100464.81;4418799;32;33456;-86
2022/09/04 08:57:48;;;;;;;7.18;4.22;;;;;;;22.52;53.37;100465.72;4361862;32;33764;-86
2022/09/04 09:00:20;;;;;;;6.55;4.18;;;;;;;22.77;52.65;100452.66;4427565;32;33233;-86
2022/09/04 09:03:12;;;;;;;7.55;4.37;;;;;;;22.62;52.85;100455.19;4428012;32;33871;-88
2022/09/04 09:06:09;;;;;;;6.07;3.95;;;;;;;22.71;52.67;100457.91;4431268;32;32781;-86
2022/09/04 09:08:52;;;;;;;6.70;4.10;;;;;;;22.05;54.66;100458.28;4436538;32;33772;-85
2022/09/04 09:11:49;;;;;;;8.23;4.37;;;;;;;22.41;53.87;100462.12;4428059;32;31744;-85
2022/09/04 09:14:42;;;;;;;6.25;3.58;;;;;;;22.03;54.93;100464.44;4426427;32;32273;-86
2022/09/04 09:17:15;;;;;;;5.78;3.95;;;;;;;22.48;53.92;100466.56;4432442;32;34263;-86
2022/09/04 09:19:59;;;;;;;6.32;3.97;;;;;;;22.49;55.08;100465.69;4432359;32;33998;-86
2022/09/04 09:22:39;;;;;;;7.53;3.83;;;;;;;22.81;53.55;100462.34;4430283;32;33246;-85
2022/09/04 09:25:19;;;;;;;6.65;4.32;;;;;;;22.87;53.86;100472.97;4428725;32;33982;-88
2022/09/04 09:28:29;;;;;;;6.35;3.95;;;;;;;23.14;52.65;100469.59;4422350;32;32258;-87
2022/09/04 09:31:33;;;;;;;6.93;3.83;;;;;;;22.78;53.16;100468.50;4380692;32;33595;-89
2022/09/04 09:34:42;;;;;;;9.35;4.40;;;;;;;23.26;51.73;100470.53;4358731;32;31906;-91
2022/09/04 09:37:39;;;;;;;5.45;4.07;;;;;;;23.13;52.10;100474.87;4425779;32;31952;-89
2022/09/04 09:40:31;;;;;;;6.15;3.92;;;;;;;23.35;51.28;100475.81;4401705;32;33650;-88
2022/09/04 09:43:23;;;;;;;5.43;3.62;;;;;;;23.53;50.76;100469.72;4412684;32;33670;-88
2022/09/04 09:46:03;;;;;;;6.72;3.50;;;;;;;23.71;51.33;100474.16;4421290;32;32350;-88
2022/09/04 09:48:31;;;;;;;9.77;3.92;;;;;;;23.65;50.83;100474.16;4436268;32;33247;-87
2022/09/04 09:51:14;;;;;;;5.93;3.40;;;;;;;23.44;51.94;100475.00;4434721;32;34062;-87
2022/09/04 09:54:14;;;;;;;6.32;3.65;;;;;;;23.39;52.02;100476.72;4436536;32;33801;-86
2022/09/04 09:57:11;;;;;;;6.10;3.15;;;;;;;23.62;50.97;100464.44;4436964;32;32985;-87
2022/09/04 10:00:04;;;;;;;6.22;3.72;;;;;;;23.86;50.42;100468.06;4446400;32;33793;-89
2022/09/04 10:02:43;;;;;;;8.40;4.30;;;;;;;23.69;50.21;100468.88;4441259;32;33703;-90
2022/09/04 10:05:45;;;;;;;5.90;3.90;;;;;;;23.88;49.55;100466.28;4456027;32;34955;-90
2022/09/04 10:08:50;;;;;;;7.03;3.92;;;;;;;23.87;49.88;100472.44;4435349;32;33433;-89
2022/09/04 10:11:35;;;;;;;5.37;3.58;;;;;;;23.79;50.48;100476.88;4445067;32;34424;-89
2022/09/04 10:14:18;;;;;;;5.93;3.72;;;;;;;23.56;50.78;100472.38;4443595;32;34560;-89
2022/09/04 10:17:02;;;;;;;6.35;3.58;;;;;;;23.48;51.11;100471.47;4426610;32;32754;-89
2022/09/04 10:19:45;;;;;;;7.90;3.90;;;;;;;23.59;50.80;100469.75;4451943;32;34273;-89
2022/09/04 10:22:57;;;;;;;6.03;3.60;;;;;;;23.28;50.95;100469.66;4453864;32;33624;-89
2022/09/04 10:26:08;;;;;;;6.68;3.47;;;;;;;23.61;50.17;100467.97;4435455;32;32307;-90
2022/09/04 10:29:08;;;;;;;6.22;4.00;;;;;;;23.31;51.52;100468.78;4392405;32;34712;-90
2022/09/04 10:31:44;;;;;;;7.15;3.72;;;;;;;23.24;51.47;100467.00;4442393;32;34018;-89
2022/09/04 10:34:45;;;;;;;7.20;3.78;;;;;;;23.20;51.45;100466.09;4441884;32;34434;-90
2022/09/04 10:37:34;;;;;;;6.03;3.45;;;;;;;23.15;51.67;100467.84;4453690;32;33967;-89
2022/09/04 10:43:08;;;;;;;6.57;3.90;;;;;;;22.88;52.59;100474.72;4449899;32;33908;-90
2022/09/04 10:45:40;;;;;;;8.63;3.78;;;;;;;22.50;54.96;100478.03;4445997;32;33873;-89
2022/09/04 10:48:29;;;;;;;6.10;4.37;;;;;;;22.14;56.78;100474.19;4410964;32;33156;-87
2022/09/04 10:51:33;;;;;;;5.87;4.00;;;;;;;22.34;57.59;100476.12;4432539;32;32602;-88
2022/09/04 10:54:15;;;;;;;6.00;4.05;;;;;;;21.93;59.11;100479.28;4426051;32;33742;-86
2022/09/04 10:57:02;;;;;;;6.22;4.70;;;;;;;21.90;61.72;100488.03;4419460;32;32344;-88
2022/09/04 10:59:48;;;;;;;7.45;4.28;;;;;;;21.47;61.30;100492.00;4431338;32;33716;-88
2022/09/04 11:02:34;;;;;;;8.88;5.15;;;;;;;21.56;62.91;100492.09;4427141;32;33709;-89
2022/09/04 11:05:41;;;;;;;8.02;5.00;;;;;;;21.78;62.95;100490.56;4427386;32;32095;-89
2022/09/04 11:08:12;;;;;;;6.15;4.35;;;;;;;21.88;60.95;100491.53;4422929;32;33784;-88
2022/09/04 11:10:57;;;;;;;7.60;5.20;;;;;;;21.82;62.24;100491.50;4419562;32;32879;-89
2022/09/04 11:14:05;;;;;;;6.43;4.75;;;;;;;21.83;62.11;100482.69;4429678;32;34710;-89
2022/09/04 11:17:14;;;;;;;6.20;4.72;;;;;;;22.43;61.59;100492.06;4425625;32;31255;-89
2022/09/04 11:20:00;;;;;;;7.43;4.40;;;;;;;22.81;58.29;100486.12;4437842;32;34467;-89
2022/09/04 11:22:39;;;;;;;5.80;4.32;;;;;;;23.17;56.91;100488.09;4438789;32;33018;-89
2022/09/04 11:25:32;;;;;;;5.75;4.35;;;;;;;23.75;54.76;100482.09;4427989;32;34469;-89
2022/09/04 11:28:11;;;;;;;5.78;3.85;;;;;;;24.00;52.81;100492.75;4453489;32;33025;-90
2022/09/04 11:31:06;;;;;;;5.87;3.97;;;;;;;23.95;52.11;100483.91;4440627;32;33548;-89
2022/09/04 11:34:12;;;;;;;6.55;4.00;;;;;;;24.40;50.91;100486.59;4448001;32;34039;-89
2022/09/04 11:37:14;;;;;;;9.73;4.00;;;;;;;24.51;50.19;100491.03;4451127;32;33969;-89
2022/09/04 11:39:57;;;;;;;7.68;3.80;;;;;;;24.38;50.01;100483.94;4445350;32;34051;-89
2022/09/04 11:42:40;;;;;;;7.80;4.03;;;;;;;24.99;47.96;100492.66;4427073;32;33784;-90
2022/09/04 11:45:16;;;;;;;7.87;3.62;;;;;;;24.58;48.92;100480.41;4440083;32;33821;-90
2022/09/04 11:48:10;;;;;;;5.82;3.60;;;;;;;24.79;48.94;100477.72;4447607;32;34239;-90
2022/09/04 11:51:00;;;;;;;5.53;3.93;;;;;;;24.56;49.04;100471.59;4415346;32;33469;-89
2022/09/04 11:54:00;;;;;;;7.62;3.55;;;;;;;24.52;48.95;100470.72;4450227;32;33996;-89
2022/09/04 11:56:39;;;;;;;5.18;3.60;;;;;;;24.59;48.64;100472.47;4429957;32;34664;-90
2022/09/04 11:59:27;;;;;;;7.00;3.50;;;;;;;24.86;48.13;100470.63;4428955;32;33817;-89
2022/09/04 12:02:22;;;;;;;6.75;3.30;;;;;;;24.87;47.61;100462.66;4440753;32;33555;-89
2022/09/04 12:05:14;;;;;;;6.60;3.40;;;;;;;24.76;47.72;100451.22;4442914;32;33843;-89
2022/09/04 12:08:03;;;;;;;7.40;3.45;;;;;;;25.06;46.78;100452.00;4414232;32;33909;-89
2022/09/04 12:11:03;;;;;;;7.03;3.83;;;;;;;24.87;47.19;100451.19;4441651;32;33945;-89
2022/09/04 12:13:56;;;;;;;7.78;3.30;;;;;;;25.34;46.29;100441.28;4401249;32;33317;-89
2022/09/04 12:16:46;;;;;;;5.57;3.30;;;;;;;24.76;47.04;100443.25;4451950;32;33409;-89
2022/09/04 12:19:53;;;;;;;5.00;3.30;;;;;;;25.14;45.89;100444.91;4440460;32;33843;-89
2022/09/04 12:22:44;;;;;;;5.25;3.53;;;;;;;25.44;44.82;100443.00;4450968;32;34368;-89
2022/09/04 12:25:27;;;;;;;6.03;3.28;;;;;;;25.57;45.16;100436.72;4432259;32;33056;-90
2022/09/04 12:28:14;;;;;;;5.78;3.15;;;;;;;25.72;43.98;100442.84;4448438;32;33783;-90
2022/09/04 12:31:01;;;;;;;4.30;3.00;;;;;;;25.70;43.94;100435.75;4442748;32;34025;-90
2022/09/04 12:33:50;;;;;;;8.35;3.72;;;;;;;25.83;43.28;100440.97;4450309;32;33650;-89
2022/09/04 12:36:40;;;;;;;4.50;2.95;;;;;;;25.85;43.15;100444.50;4450985;32;33217;-90
2022/09/04 12:39:20;;;;;;;7.20;3.70;;;;;;;24.96;44.55;100451.16;4440065;32;33342;-90
2022/09/04 12:42:17;;;;;;;4.35;3.10;;;;;;;24.96;46.06;100443.22;4440147;32;34085;-89
2022/09/04 12:44:58;;;;;;;4.80;3.12;;;;;;;25.78;43.97;100434.81;4440078;32;33693;-89
2022/09/04 12:47:42;;;;;;;5.55;3.60;;;;;;;25.85;43.75;100432.09;4436602;32;34130;-90
2022/09/04 12:50:17;;;;;;;7.30;3.15;;;;;;;25.84;43.21;100432.12;4436344;32;33559;-89
2022/09/04 12:53:11;;;;;;;4.18;2.70;;;;;;;25.98;43.13;100430.28;4415896;32;32495;-89
2022/09/04 12:55:50;;;;;;;5.40;3.30;;;;;;;26.16;43.53;100433.66;4437850;32;34292;-89
2022/09/04 12:58:41;;;;;;;5.43;2.85;;;;;;;26.35;42.57;100429.03;4440079;32;33437;-89
2022/09/04 13:01:37;;;;;;;4.07;3.05;;;;;;;25.56;43.78;100421.72;4439512;32;34004;-90